Tuesday, December 18, 2018, 12:18 PM EST
Back to Local

KOXC, Oxford, Waterbury-oxford Airport

Location: Oxford, CT, United States Lat: 41.483
Local Time: 12:18 PM EST (17:18 GMT) Lon: -73.133
Time Zone: US/Eastern Elev: 725 ft

Show me the last for .
Show Decoded

2018-12-18 11:51 METAR KOXC 181651Z 33017G22KT 10SM CLR M03/M12 A2994 RMK AO2 PK WND 34027/1635
                 SLP160 T10331117 =
2018-12-18 10:51 METAR KOXC 181551Z 33015G23KT 10SM FEW045 M04/M12 A2995 RMK AO2 PK WND
                 33026/1506 SLP163 T10391122 =
2018-12-18 09:51 METAR KOXC 181451Z 34017G28KT 10SM FEW035 M04/M13 A2995 RMK AO2 PK WND
                 33033/1439 SLP165 T10441128 53024 =
2018-12-18 08:51 METAR KOXC 181351Z 34020G38KT 10SM CLR M06/M13 A2992 RMK AO2 PK WND 34038/1346
                 SLP153 T10561128 =
2018-12-18 07:51 METAR KOXC 181251Z COR 32015G26KT 10SM FEW035 M06/M12 A2989 RMK AO2 PK WND
                 31035/1216 SLP141 T10611122 =
2018-12-18 06:51 METAR KOXC 181151Z 33018G25KT 10SM FEW035 M06/M13 A2988 RMK AO2 PK WND
                 33028/1053 SLP138 60000 T10611128 10000 21061 51036 =
2018-12-18 05:51 METAR KOXC 181051Z AUTO 33013G25KT 10SM OVC033 M05/M11 A2985 RMK AO2 PK WND
                 32027/0956 SLP129 T10501106 FZRANO =
2018-12-18 04:51 METAR KOXC 180951Z AUTO 32020G26KT 10SM BKN031 M05/M10 A2982 RMK AO2 PK WND
                 35027/0902 SLP118 T10501100 FZRANO =
2018-12-18 03:51 METAR KOXC 180851Z AUTO 34018G29KT 10SM CLR M04/M10 A2977 RMK AO2 PK WND
                 31032/0805 SLP102 60000 T10391100 53027 FZRANO =
2018-12-18 02:51 METAR KOXC 180751Z AUTO 31015G30KT 10SM CLR M02/M09 A2975 RMK AO2 PK WND
                 31030/0743 SLP092 T10221089 FZRANO =
2018-12-18 01:51 METAR KOXC 180651Z AUTO 32012G20KT 10SM BKN039 M01/M06 A2971 RMK AO2
                 UPB38E41SNE38 SLP079 P0000 T10061056 FZRANO =
2018-12-18 00:51 METAR KOXC 180551Z AUTO 32012G21KT 9SM -SN FEW026 BKN036 OVC049 00/M04 A2969 RMK
                 AO2 RAE16SNB16 SLP072 P0000 60000 T00001039 10028 20000 53007 FZRANO =
2018-12-17 23:51 METAR KOXC 180451Z AUTO 30010G16KT 10SM -RA OVC038 02/M04 A2967 RMK AO2 RAB44
                 SLP064 P0000 T00221044 400390011 FZRANO =
2018-12-17 22:51 METAR KOXC 180351Z AUTO 28009G16KT 10SM FEW039 SCT047 BKN060 02/M04 A2966 RMK
                 AO2 SLP062 T00221039 FZRANO =
2018-12-17 21:51 METAR KOXC 180251Z AUTO 29008KT 260V330 10SM SCT039 SCT055 OVC075 02/M03 A2967
                 RMK AO2 SLP063 T00221033 58002 FZRANO =
2018-12-17 20:51 METAR KOXC 180151Z VRB06G14KT 10SM BKN034 OVC060 03/M02 A2968 RMK AO2 SLP066
                 T00281022 =
2018-12-17 19:51 METAR KOXC 180051Z 28005KT 10SM SCT055 OVC070 02/M02 A2968 RMK AO2 SLP068
                 T00221022 =
2018-12-17 18:51 METAR KOXC 172351Z 29006KT 10SM FEW050 OVC065 03/M02 A2968 RMK AO2 SLP067 60000
                 T00281022 10039 20028 51017 =
2018-12-17 17:51 METAR KOXC 172251Z 30008KT 260V340 10SM BKN046 OVC055 03/M02 A2966 RMK AO2
                 RAB01E30 SLP062 P0000 T00281017 =
2018-12-17 16:51 METAR KOXC 172151Z 32010G15KT 10SM SCT029 OVC036 03/M01 A2965 RMK AO2 SLP058
                 T00331006 =
2018-12-17 15:51 METAR KOXC 172051Z 30007KT 10SM SCT025 BKN047 OVC060 03/00 A2962 RMK AO2 SLP048
                 60000 T00330000 53000 =
2018-12-17 14:51 METAR KOXC 171951Z VRB06KT 10SM SCT015 BKN022 OVC037 04/01 A2961 RMK AO2
                 RAE05B43E48 SLP044 P0000 T00390011 =
2018-12-17 14:10 METAR KOXC 171910Z VRB05KT 10SM FEW013 BKN035 03/02 A2960 RMK AO2 RAE05 P0000 =
2018-12-17 13:51 METAR KOXC 171851Z 30007KT 250V350 9SM -RA BKN015 OVC027 03/01 A2961 RMK AO2
                 RAB47 SLP043 P0000 T00280011 =
2018-12-17 12:51 METAR KOXC 171751Z 30007KT 10SM SCT014 BKN022 OVC029 03/01 A2962 RMK AO2 SLP048
                 T00330006 10033 20011 56026 =

Support USWX by starting your Amazon purchase here.